sensor_id;sensor_type;location;lat;lon;timestamp;P1;durP1;ratioP1;P2;durP2;ratioP2
26219;SDS011;13955;55.574;37.474;2022-10-12T00:00:16;21.00;;;8.33;;
26219;SDS011;13955;55.574;37.474;2022-10-12T00:02:46;40.67;;;13.90;;
26219;SDS011;13955;55.574;37.474;2022-10-12T00:05:16;26.25;;;11.35;;
26219;SDS011;13955;55.574;37.474;2022-10-12T00:07:46;17.97;;;8.50;;
26219;SDS011;13955;55.574;37.474;2022-10-12T00:10:17;13.83;;;6.03;;
26219;SDS011;13955;55.574;37.474;2022-10-12T00:12:47;13.90;;;6.00;;
26219;SDS011;13955;55.574;37.474;2022-10-12T00:15:17;10.20;;;6.10;;
26219;SDS011;13955;55.574;37.474;2022-10-12T00:17:47;16.83;;;9.03;;
26219;SDS011;13955;55.574;37.474;2022-10-12T00:20:17;28.40;;;9.83;;
26219;SDS011;13955;55.574;37.474;2022-10-12T00:22:47;27.30;;;9.67;;
26219;SDS011;13955;55.574;37.474;2022-10-12T00:25:17;13.78;;;7.35;;
26219;SDS011;13955;55.574;37.474;2022-10-12T00:27:48;31.25;;;11.95;;
26219;SDS011;13955;55.574;37.474;2022-10-12T00:30:18;22.32;;;10.63;;
26219;SDS011;13955;55.574;37.474;2022-10-12T00:32:48;11.93;;;6.15;;
26219;SDS011;13955;55.574;37.474;2022-10-12T00:35:18;17.87;;;8.13;;
26219;SDS011;13955;55.574;37.474;2022-10-12T00:37:55;18.45;;;7.12;;
26219;SDS011;13955;55.574;37.474;2022-10-12T00:40:25;17.00;;;8.05;;
26219;SDS011;13955;55.574;37.474;2022-10-12T00:42:55;12.10;;;5.23;;
26219;SDS011;13955;55.574;37.474;2022-10-12T00:45:25;15.70;;;6.85;;
26219;SDS011;13955;55.574;37.474;2022-10-12T00:47:56;14.23;;;8.20;;
26219;SDS011;13955;55.574;37.474;2022-10-12T00:50:31;14.47;;;7.60;;
26219;SDS011;13955;55.574;37.474;2022-10-12T00:53:05;19.05;;;6.55;;
26219;SDS011;13955;55.574;37.474;2022-10-12T00:55:37;33.50;;;12.90;;
26219;SDS011;13955;55.574;37.474;2022-10-12T00:58:09;17.07;;;7.30;;
26219;SDS011;13955;55.574;37.474;2022-10-12T01:00:39;11.95;;;6.20;;
26219;SDS011;13955;55.574;37.474;2022-10-12T01:03:12;28.42;;;10.80;;
26219;SDS011;13955;55.574;37.474;2022-10-12T01:05:44;18.73;;;9.65;;
26219;SDS011;13955;55.574;37.474;2022-10-12T01:08:14;22.65;;;10.50;;
26219;SDS011;13955;55.574;37.474;2022-10-12T01:10:44;26.02;;;11.70;;
26219;SDS011;13955;55.574;37.474;2022-10-12T01:13:14;16.35;;;7.45;;
26219;SDS011;13955;55.574;37.474;2022-10-12T01:15:49;20.45;;;9.78;;
26219;SDS011;13955;55.574;37.474;2022-10-12T01:18:19;22.35;;;9.88;;
26219;SDS011;13955;55.574;37.474;2022-10-12T01:20:55;16.73;;;9.00;;
26219;SDS011;13955;55.574;37.474;2022-10-12T01:26:43;11.50;;;4.05;;
26219;SDS011;13955;55.574;37.474;2022-10-12T01:37:20;9.48;;;3.67;;
26219;SDS011;13955;55.574;37.474;2022-10-12T01:39:52;9.30;;;3.58;;
26219;SDS011;13955;55.574;37.474;2022-10-12T01:42:31;12.93;;;4.15;;
26219;SDS011;13955;55.574;37.474;2022-10-12T01:45:07;9.33;;;4.10;;
26219;SDS011;13955;55.574;37.474;2022-10-12T01:47:40;13.08;;;3.98;;
26219;SDS011;13955;55.574;37.474;2022-10-12T01:50:14;10.08;;;5.00;;
26219;SDS011;13955;55.574;37.474;2022-10-12T01:55:54;14.73;;;5.35;;
26219;SDS011;13955;55.574;37.474;2022-10-12T01:58:30;13.53;;;4.15;;
26219;SDS011;13955;55.574;37.474;2022-10-12T02:04:00;7.67;;;3.87;;
26219;SDS011;13955;55.574;37.474;2022-10-12T02:06:37;11.20;;;4.47;;
26219;SDS011;13955;55.574;37.474;2022-10-12T02:11:49;8.60;;;5.17;;
26219;SDS011;13955;55.574;37.474;2022-10-12T02:14:41;8.55;;;4.03;;
26219;SDS011;13955;55.574;37.474;2022-10-12T02:17:16;15.45;;;7.08;;
26219;SDS011;13955;55.574;37.474;2022-10-12T02:19:54;12.58;;;5.58;;
26219;SDS011;13955;55.574;37.474;2022-10-12T02:22:32;12.47;;;4.67;;
26219;SDS011;13955;55.574;37.474;2022-10-12T02:25:06;26.82;;;11.08;;
26219;SDS011;13955;55.574;37.474;2022-10-12T02:27:40;31.33;;;11.83;;
26219;SDS011;13955;55.574;37.474;2022-10-12T02:30:12;10.45;;;4.20;;
26219;SDS011;13955;55.574;37.474;2022-10-12T02:37:55;7.28;;;3.98;;
26219;SDS011;13955;55.574;37.474;2022-10-12T02:40:55;9.90;;;4.92;;
26219;SDS011;13955;55.574;37.474;2022-10-12T02:46:06;11.55;;;4.58;;
26219;SDS011;13955;55.574;37.474;2022-10-12T02:48:38;10.48;;;4.87;;
26219;SDS011;13955;55.574;37.474;2022-10-12T02:51:09;9.40;;;4.80;;
26219;SDS011;13955;55.574;37.474;2022-10-12T02:53:40;10.70;;;4.90;;
26219;SDS011;13955;55.574;37.474;2022-10-12T02:56:13;16.23;;;5.92;;
26219;SDS011;13955;55.574;37.474;2022-10-12T02:58:44;10.32;;;5.22;;
26219;SDS011;13955;55.574;37.474;2022-10-12T03:01:16;11.03;;;4.90;;
26219;SDS011;13955;55.574;37.474;2022-10-12T03:03:46;6.95;;;3.98;;
26219;SDS011;13955;55.574;37.474;2022-10-12T03:06:17;10.15;;;4.65;;
26219;SDS011;13955;55.574;37.474;2022-10-12T03:08:47;16.70;;;7.25;;
26219;SDS011;13955;55.574;37.474;2022-10-12T03:11:17;9.68;;;4.95;;
26219;SDS011;13955;55.574;37.474;2022-10-12T03:13:51;24.12;;;11.43;;
26219;SDS011;13955;55.574;37.474;2022-10-12T03:16:23;14.05;;;6.80;;
26219;SDS011;13955;55.574;37.474;2022-10-12T03:18:53;18.42;;;8.53;;
26219;SDS011;13955;55.574;37.474;2022-10-12T03:21:23;7.57;;;4.40;;
26219;SDS011;13955;55.574;37.474;2022-10-12T03:23:54;14.45;;;7.00;;
26219;SDS011;13955;55.574;37.474;2022-10-12T03:26:24;13.13;;;6.35;;
26219;SDS011;13955;55.574;37.474;2022-10-12T03:28:54;9.47;;;4.83;;
26219;SDS011;13955;55.574;37.474;2022-10-12T03:31:24;19.10;;;9.03;;
26219;SDS011;13955;55.574;37.474;2022-10-12T03:33:54;22.87;;;7.63;;
26219;SDS011;13955;55.574;37.474;2022-10-12T03:36:24;13.58;;;6.37;;
26219;SDS011;13955;55.574;37.474;2022-10-12T03:38:54;12.63;;;5.65;;
26219;SDS011;13955;55.574;37.474;2022-10-12T03:41:25;13.10;;;5.65;;
26219;SDS011;13955;55.574;37.474;2022-10-12T03:43:55;21.80;;;8.88;;
26219;SDS011;13955;55.574;37.474;2022-10-12T03:46:25;25.92;;;9.68;;
26219;SDS011;13955;55.574;37.474;2022-10-12T03:48:55;17.13;;;7.73;;
26219;SDS011;13955;55.574;37.474;2022-10-12T03:51:26;21.13;;;8.90;;
26219;SDS011;13955;55.574;37.474;2022-10-12T03:53:56;11.28;;;6.35;;
26219;SDS011;13955;55.574;37.474;2022-10-12T03:56:26;25.05;;;10.68;;
26219;SDS011;13955;55.574;37.474;2022-10-12T03:58:56;26.07;;;9.88;;
26219;SDS011;13955;55.574;37.474;2022-10-12T04:01:26;21.20;;;6.67;;
26219;SDS011;13955;55.574;37.474;2022-10-12T04:03:56;22.73;;;7.12;;
26219;SDS011;13955;55.574;37.474;2022-10-12T04:06:26;11.00;;;5.67;;
26219;SDS011;13955;55.574;37.474;2022-10-12T04:08:57;15.78;;;5.78;;
26219;SDS011;13955;55.574;37.474;2022-10-12T04:11:27;12.10;;;5.33;;
26219;SDS011;13955;55.574;37.474;2022-10-12T04:13:57;6.97;;;4.30;;
26219;SDS011;13955;55.574;37.474;2022-10-12T04:16:27;8.20;;;4.17;;
26219;SDS011;13955;55.574;37.474;2022-10-12T04:18:57;24.30;;;9.73;;
26219;SDS011;13955;55.574;37.474;2022-10-12T04:21:27;42.07;;;12.10;;
26219;SDS011;13955;55.574;37.474;2022-10-12T04:23:59;25.30;;;11.65;;
26219;SDS011;13955;55.574;37.474;2022-10-12T04:26:30;32.95;;;14.60;;
26219;SDS011;13955;55.574;37.474;2022-10-12T04:29:00;56.75;;;15.93;;
26219;SDS011;13955;55.574;37.474;2022-10-12T04:31:30;39.05;;;15.32;;
26219;SDS011;13955;55.574;37.474;2022-10-12T04:34:00;36.38;;;15.00;;
26219;SDS011;13955;55.574;37.474;2022-10-12T04:36:31;48.75;;;21.00;;
26219;SDS011;13955;55.574;37.474;2022-10-12T04:39:01;18.75;;;8.38;;
26219;SDS011;13955;55.574;37.474;2022-10-12T04:41:31;23.52;;;10.70;;
26219;SDS011;13955;55.574;37.474;2022-10-12T04:44:02;9.10;;;3.87;;
26219;SDS011;13955;55.574;37.474;2022-10-12T04:46:32;7.72;;;3.83;;
26219;SDS011;13955;55.574;37.474;2022-10-12T04:51:32;10.58;;;5.25;;
26219;SDS011;13955;55.574;37.474;2022-10-12T04:54:02;8.60;;;4.50;;
26219;SDS011;13955;55.574;37.474;2022-10-12T04:56:33;7.50;;;4.17;;
26219;SDS011;13955;55.574;37.474;2022-10-12T04:59:03;11.38;;;5.00;;
26219;SDS011;13955;55.574;37.474;2022-10-12T05:01:33;11.22;;;4.20;;
26219;SDS011;13955;55.574;37.474;2022-10-12T05:04:03;7.33;;;3.83;;
26219;SDS011;13955;55.574;37.474;2022-10-12T05:06:34;12.70;;;5.33;;
26219;SDS011;13955;55.574;37.474;2022-10-12T05:09:04;10.28;;;5.97;;
26219;SDS011;13955;55.574;37.474;2022-10-12T05:11:34;11.93;;;6.20;;
26219;SDS011;13955;55.574;37.474;2022-10-12T05:14:04;20.00;;;7.43;;
26219;SDS011;13955;55.574;37.474;2022-10-12T05:16:34;13.62;;;6.22;;
26219;SDS011;13955;55.574;37.474;2022-10-12T05:19:04;12.80;;;6.07;;
26219;SDS011;13955;55.574;37.474;2022-10-12T05:21:35;13.28;;;6.50;;
26219;SDS011;13955;55.574;37.474;2022-10-12T05:24:06;10.93;;;5.50;;
26219;SDS011;13955;55.574;37.474;2022-10-12T05:26:37;9.78;;;5.08;;
26219;SDS011;13955;55.574;37.474;2022-10-12T05:29:07;8.43;;;4.10;;
26219;SDS011;13955;55.574;37.474;2022-10-12T05:31:38;15.78;;;7.08;;
26219;SDS011;13955;55.574;37.474;2022-10-12T05:34:08;13.40;;;5.65;;
26219;SDS011;13955;55.574;37.474;2022-10-12T05:36:38;24.18;;;8.80;;
26219;SDS011;13955;55.574;37.474;2022-10-12T05:39:09;13.25;;;5.28;;
26219;SDS011;13955;55.574;37.474;2022-10-12T05:41:39;12.23;;;5.30;;
26219;SDS011;13955;55.574;37.474;2022-10-12T05:44:09;15.10;;;6.15;;
26219;SDS011;13955;55.574;37.474;2022-10-12T05:46:39;25.43;;;10.08;;
26219;SDS011;13955;55.574;37.474;2022-10-12T05:49:10;18.32;;;8.53;;
26219;SDS011;13955;55.574;37.474;2022-10-12T05:51:40;7.45;;;3.77;;
26219;SDS011;13955;55.574;37.474;2022-10-12T05:54:10;22.22;;;6.62;;
26219;SDS011;13955;55.574;37.474;2022-10-12T05:56:40;16.30;;;7.22;;
26219;SDS011;13955;55.574;37.474;2022-10-12T05:59:11;10.28;;;5.12;;
26219;SDS011;13955;55.574;37.474;2022-10-12T06:01:41;19.98;;;7.80;;
26219;SDS011;13955;55.574;37.474;2022-10-12T06:04:11;11.55;;;4.22;;
26219;SDS011;13955;55.574;37.474;2022-10-12T06:06:42;8.10;;;4.40;;
26219;SDS011;13955;55.574;37.474;2022-10-12T06:09:12;10.53;;;4.37;;
26219;SDS011;13955;55.574;37.474;2022-10-12T06:11:42;20.83;;;4.90;;
26219;SDS011;13955;55.574;37.474;2022-10-12T06:14:12;6.95;;;3.42;;
26219;SDS011;13955;55.574;37.474;2022-10-12T06:16:43;12.35;;;5.37;;
26219;SDS011;13955;55.574;37.474;2022-10-12T06:19:13;13.75;;;4.45;;
26219;SDS011;13955;55.574;37.474;2022-10-12T06:21:43;14.00;;;5.22;;
26219;SDS011;13955;55.574;37.474;2022-10-12T06:24:13;21.82;;;7.70;;
26219;SDS011;13955;55.574;37.474;2022-10-12T06:26:43;16.32;;;5.90;;
26219;SDS011;13955;55.574;37.474;2022-10-12T06:29:14;19.57;;;6.30;;
26219;SDS011;13955;55.574;37.474;2022-10-12T06:31:44;15.55;;;5.42;;
26219;SDS011;13955;55.574;37.474;2022-10-12T06:34:15;13.48;;;5.92;;
26219;SDS011;13955;55.574;37.474;2022-10-12T06:36:45;18.20;;;5.58;;
26219;SDS011;13955;55.574;37.474;2022-10-12T06:39:16;10.50;;;5.33;;
26219;SDS011;13955;55.574;37.474;2022-10-12T06:41:47;17.40;;;6.42;;
26219;SDS011;13955;55.574;37.474;2022-10-12T06:44:19;16.67;;;6.22;;
26219;SDS011;13955;55.574;37.474;2022-10-12T06:46:49;8.35;;;5.35;;
26219;SDS011;13955;55.574;37.474;2022-10-12T06:49:20;14.50;;;6.30;;
26219;SDS011;13955;55.574;37.474;2022-10-12T06:51:50;19.13;;;7.20;;
26219;SDS011;13955;55.574;37.474;2022-10-12T06:54:20;14.60;;;7.22;;
26219;SDS011;13955;55.574;37.474;2022-10-12T06:56:51;24.70;;;9.60;;
26219;SDS011;13955;55.574;37.474;2022-10-12T06:59:22;13.38;;;7.15;;
26219;SDS011;13955;55.574;37.474;2022-10-12T07:01:52;28.62;;;6.83;;
26219;SDS011;13955;55.574;37.474;2022-10-12T07:04:22;8.95;;;4.58;;
26219;SDS011;13955;55.574;37.474;2022-10-12T07:06:53;12.68;;;3.62;;
26219;SDS011;13955;55.574;37.474;2022-10-12T07:09:24;10.90;;;5.62;;
26219;SDS011;13955;55.574;37.474;2022-10-12T07:11:55;12.70;;;5.05;;
26219;SDS011;13955;55.574;37.474;2022-10-12T07:14:25;9.45;;;5.35;;
26219;SDS011;13955;55.574;37.474;2022-10-12T07:16:55;10.75;;;5.40;;
26219;SDS011;13955;55.574;37.474;2022-10-12T07:19:25;12.75;;;5.00;;
26219;SDS011;13955;55.574;37.474;2022-10-12T07:21:56;22.55;;;5.62;;
26219;SDS011;13955;55.574;37.474;2022-10-12T07:24:26;14.35;;;5.00;;
26219;SDS011;13955;55.574;37.474;2022-10-12T07:27:01;22.17;;;5.87;;
26219;SDS011;13955;55.574;37.474;2022-10-12T07:29:33;11.40;;;5.97;;
26219;SDS011;13955;55.574;37.474;2022-10-12T07:32:05;7.40;;;3.75;;
26219;SDS011;13955;55.574;37.474;2022-10-12T07:37:04;9.35;;;4.53;;
26219;SDS011;13955;55.574;37.474;2022-10-12T07:39:34;19.13;;;4.87;;
26219;SDS011;13955;55.574;37.474;2022-10-12T07:42:05;19.62;;;5.30;;
26219;SDS011;13955;55.574;37.474;2022-10-12T07:44:36;10.45;;;4.45;;
26219;SDS011;13955;55.574;37.474;2022-10-12T07:47:06;11.57;;;3.08;;
26219;SDS011;13955;55.574;37.474;2022-10-12T07:49:36;8.03;;;3.97;;
26219;SDS011;13955;55.574;37.474;2022-10-12T07:52:06;6.03;;;2.70;;
26219;SDS011;13955;55.574;37.474;2022-10-12T07:54:36;6.92;;;2.90;;
26219;SDS011;13955;55.574;37.474;2022-10-12T07:57:07;11.47;;;3.13;;
26219;SDS011;13955;55.574;37.474;2022-10-12T07:59:37;4.93;;;2.60;;
26219;SDS011;13955;55.574;37.474;2022-10-12T08:02:08;7.50;;;3.10;;
26219;SDS011;13955;55.574;37.474;2022-10-12T08:04:39;4.95;;;1.60;;
26219;SDS011;13955;55.574;37.474;2022-10-12T08:07:09;4.20;;;3.08;;
26219;SDS011;13955;55.574;37.474;2022-10-12T08:09:39;6.58;;;2.95;;
26219;SDS011;13955;55.574;37.474;2022-10-12T08:12:10;6.35;;;2.83;;
26219;SDS011;13955;55.574;37.474;2022-10-12T08:14:40;4.03;;;1.85;;
26219;SDS011;13955;55.574;37.474;2022-10-12T08:17:10;8.10;;;3.08;;
26219;SDS011;13955;55.574;37.474;2022-10-12T08:19:43;4.25;;;2.40;;
26219;SDS011;13955;55.574;37.474;2022-10-12T08:22:13;6.07;;;2.50;;
26219;SDS011;13955;55.574;37.474;2022-10-12T08:24:45;9.30;;;3.02;;
26219;SDS011;13955;55.574;37.474;2022-10-12T08:27:15;4.83;;;2.15;;
26219;SDS011;13955;55.574;37.474;2022-10-12T08:29:45;4.28;;;2.22;;
26219;SDS011;13955;55.574;37.474;2022-10-12T08:32:17;4.72;;;2.47;;
26219;SDS011;13955;55.574;37.474;2022-10-12T08:34:47;6.10;;;2.98;;
26219;SDS011;13955;55.574;37.474;2022-10-12T08:37:17;6.22;;;2.58;;
26219;SDS011;13955;55.574;37.474;2022-10-12T08:39:47;5.62;;;2.72;;
26219;SDS011;13955;55.574;37.474;2022-10-12T08:43:04;7.30;;;2.60;;
26219;SDS011;13955;55.574;37.474;2022-10-12T08:47:51;9.65;;;3.65;;
26219;SDS011;13955;55.574;37.474;2022-10-12T08:50:32;9.33;;;4.20;;
26219;SDS011;13955;55.574;37.474;2022-10-12T08:53:05;9.08;;;4.25;;
26219;SDS011;13955;55.574;37.474;2022-10-12T08:55:39;9.00;;;4.22;;
26219;SDS011;13955;55.574;37.474;2022-10-12T08:58:17;6.35;;;4.00;;
26219;SDS011;13955;55.574;37.474;2022-10-12T09:01:01;8.78;;;4.87;;
26219;SDS011;13955;55.574;37.474;2022-10-12T09:09:40;6.58;;;4.15;;
26219;SDS011;13955;55.574;37.474;2022-10-12T09:15:00;12.15;;;6.30;;
26219;SDS011;13955;55.574;37.474;2022-10-12T09:17:34;10.75;;;5.70;;
26219;SDS011;13955;55.574;37.474;2022-10-12T09:20:19;15.60;;;6.15;;
26219;SDS011;13955;55.574;37.474;2022-10-12T09:22:59;19.95;;;7.22;;
26219;SDS011;13955;55.574;37.474;2022-10-12T09:25:30;10.10;;;6.50;;
26219;SDS011;13955;55.574;37.474;2022-10-12T09:28:07;12.28;;;6.22;;
26219;SDS011;13955;55.574;37.474;2022-10-12T09:30:45;16.52;;;7.17;;
26219;SDS011;13955;55.574;37.474;2022-10-12T09:33:21;15.70;;;6.95;;
26219;SDS011;13955;55.574;37.474;2022-10-12T09:35:52;8.03;;;4.12;;
26219;SDS011;13955;55.574;37.474;2022-10-12T09:38:23;5.55;;;3.70;;
26219;SDS011;13955;55.574;37.474;2022-10-12T09:40:54;7.92;;;5.37;;
26219;SDS011;13955;55.574;37.474;2022-10-12T09:43:24;13.22;;;6.03;;
26219;SDS011;13955;55.574;37.474;2022-10-12T09:46:05;13.58;;;6.65;;
26219;SDS011;13955;55.574;37.474;2022-10-12T09:48:28;11.30;;;5.15;;
26219;SDS011;13955;55.574;37.474;2022-10-12T09:51:05;8.95;;;4.10;;
26219;SDS011;13955;55.574;37.474;2022-10-12T09:53:32;14.63;;;5.70;;
26219;SDS011;13955;55.574;37.474;2022-10-12T09:56:11;11.68;;;6.25;;
26219;SDS011;13955;55.574;37.474;2022-10-12T09:58:42;10.15;;;6.30;;
26219;SDS011;13955;55.574;37.474;2022-10-12T10:01:19;14.75;;;5.15;;
26219;SDS011;13955;55.574;37.474;2022-10-12T10:04:30;9.65;;;4.62;;
26219;SDS011;13955;55.574;37.474;2022-10-12T10:12:59;9.20;;;4.95;;
26219;SDS011;13955;55.574;37.474;2022-10-12T10:15:37;7.97;;;3.35;;
26219;SDS011;13955;55.574;37.474;2022-10-12T10:18:07;5.20;;;3.20;;
26219;SDS011;13955;55.574;37.474;2022-10-12T10:20:55;10.30;;;3.72;;
26219;SDS011;13955;55.574;37.474;2022-10-12T10:23:28;9.68;;;3.95;;
26219;SDS011;13955;55.574;37.474;2022-10-12T10:29:13;12.23;;;4.28;;
26219;SDS011;13955;55.574;37.474;2022-10-12T10:31:30;10.13;;;4.50;;
26219;SDS011;13955;55.574;37.474;2022-10-12T10:34:10;7.87;;;3.98;;
26219;SDS011;13955;55.574;37.474;2022-10-12T10:36:45;7.12;;;3.87;;
26219;SDS011;13955;55.574;37.474;2022-10-12T10:39:27;5.53;;;3.37;;
26219;SDS011;13955;55.574;37.474;2022-10-12T10:42:09;5.53;;;3.20;;
26219;SDS011;13955;55.574;37.474;2022-10-12T10:44:44;7.03;;;3.50;;
26219;SDS011;13955;55.574;37.474;2022-10-12T10:47:17;6.28;;;3.30;;
26219;SDS011;13955;55.574;37.474;2022-10-12T10:49:49;5.97;;;3.25;;
26219;SDS011;13955;55.574;37.474;2022-10-12T10:52:31;8.15;;;2.67;;
26219;SDS011;13955;55.574;37.474;2022-10-12T11:00:35;4.20;;;2.50;;
26219;SDS011;13955;55.574;37.474;2022-10-12T11:03:12;6.08;;;2.62;;
26219;SDS011;13955;55.574;37.474;2022-10-12T11:05:48;9.93;;;3.42;;
26219;SDS011;13955;55.574;37.474;2022-10-12T11:08:25;7.10;;;3.33;;
26219;SDS011;13955;55.574;37.474;2022-10-12T11:11:05;5.03;;;2.70;;
26219;SDS011;13955;55.574;37.474;2022-10-12T11:22:29;6.40;;;2.87;;
26219;SDS011;13955;55.574;37.474;2022-10-12T11:25:02;4.37;;;1.80;;
26219;SDS011;13955;55.574;37.474;2022-10-12T11:27:38;4.20;;;2.30;;
26219;SDS011;13955;55.574;37.474;2022-10-12T11:30:15;5.00;;;2.58;;
26219;SDS011;13955;55.574;37.474;2022-10-12T11:32:48;3.90;;;2.37;;
26219;SDS011;13955;55.574;37.474;2022-10-12T11:35:33;7.50;;;3.65;;
26219;SDS011;13955;55.574;37.474;2022-10-12T11:37:59;9.60;;;3.45;;
26219;SDS011;13955;55.574;37.474;2022-10-12T11:40:46;5.37;;;2.27;;
26219;SDS011;13955;55.574;37.474;2022-10-12T11:43:20;9.08;;;2.37;;
26219;SDS011;13955;55.574;37.474;2022-10-12T11:45:54;8.83;;;2.67;;
26219;SDS011;13955;55.574;37.474;2022-10-12T11:48:27;10.03;;;3.60;;
26219;SDS011;13955;55.574;37.474;2022-10-12T11:50:59;5.72;;;2.55;;
26219;SDS011;13955;55.574;37.474;2022-10-12T11:56:32;7.67;;;3.42;;
26219;SDS011;13955;55.574;37.474;2022-10-12T11:59:15;8.95;;;3.77;;
26219;SDS011;13955;55.574;37.474;2022-10-12T12:01:56;6.75;;;2.77;;
26219;SDS011;13955;55.574;37.474;2022-10-12T12:04:34;5.72;;;2.50;;
26219;SDS011;13955;55.574;37.474;2022-10-12T12:07:53;5.05;;;2.67;;
26219;SDS011;13955;55.574;37.474;2022-10-12T12:09:56;12.35;;;3.87;;
26219;SDS011;13955;55.574;37.474;2022-10-12T12:12:27;4.85;;;2.45;;
26219;SDS011;13955;55.574;37.474;2022-10-12T12:14:59;8.55;;;3.33;;
26219;SDS011;13955;55.574;37.474;2022-10-12T12:17:31;10.38;;;3.67;;
26219;SDS011;13955;55.574;37.474;2022-10-12T12:22:47;9.40;;;3.98;;
26219;SDS011;13955;55.574;37.474;2022-10-12T12:25:28;8.55;;;3.90;;
26219;SDS011;13955;55.574;37.474;2022-10-12T12:28:20;13.30;;;4.60;;
26219;SDS011;13955;55.574;37.474;2022-10-12T12:34:05;6.25;;;3.50;;
26219;SDS011;13955;55.574;37.474;2022-10-12T12:36:43;7.72;;;2.70;;
26219;SDS011;13955;55.574;37.474;2022-10-12T12:39:22;6.20;;;3.05;;
26219;SDS011;13955;55.574;37.474;2022-10-12T12:42:00;8.85;;;4.22;;
26219;SDS011;13955;55.574;37.474;2022-10-12T12:44:40;7.55;;;3.70;;
26219;SDS011;13955;55.574;37.474;2022-10-12T13:04:11;16.12;;;2.72;;
26219;SDS011;13955;55.574;37.474;2022-10-12T13:18:18;9.13;;;3.05;;
26219;SDS011;13955;55.574;37.474;2022-10-12T13:20:44;10.10;;;4.53;;
26219;SDS011;13955;55.574;37.474;2022-10-12T13:23:23;5.60;;;3.00;;
26219;SDS011;13955;55.574;37.474;2022-10-12T13:25:51;7.60;;;3.42;;
26219;SDS011;13955;55.574;37.474;2022-10-12T13:28:28;4.58;;;2.20;;
26219;SDS011;13955;55.574;37.474;2022-10-12T13:36:31;10.20;;;4.33;;
26219;SDS011;13955;55.574;37.474;2022-10-12T13:39:11;9.65;;;3.70;;
26219;SDS011;13955;55.574;37.474;2022-10-12T13:41:47;6.35;;;3.35;;
26219;SDS011;13955;55.574;37.474;2022-10-12T13:44:20;11.45;;;4.62;;
26219;SDS011;13955;55.574;37.474;2022-10-12T13:46:55;10.63;;;4.47;;
26219;SDS011;13955;55.574;37.474;2022-10-12T13:52:15;8.50;;;3.60;;
26219;SDS011;13955;55.574;37.474;2022-10-12T13:54:42;6.78;;;3.33;;
26219;SDS011;13955;55.574;37.474;2022-10-12T13:57:33;6.70;;;3.12;;
26219;SDS011;13955;55.574;37.474;2022-10-12T14:00:09;6.35;;;2.92;;
26219;SDS011;13955;55.574;37.474;2022-10-12T14:05:30;8.88;;;3.98;;
26219;SDS011;13955;55.574;37.474;2022-10-12T14:08:04;7.33;;;4.03;;
26219;SDS011;13955;55.574;37.474;2022-10-12T14:10:35;9.68;;;4.87;;
26219;SDS011;13955;55.574;37.474;2022-10-12T14:13:10;10.38;;;2.98;;
26219;SDS011;13955;55.574;37.474;2022-10-12T14:15:41;6.12;;;3.20;;
26219;SDS011;13955;55.574;37.474;2022-10-12T14:18:31;7.57;;;3.43;;
26219;SDS011;13955;55.574;37.474;2022-10-12T14:21:20;6.53;;;3.75;;
26219;SDS011;13955;55.574;37.474;2022-10-12T14:23:58;9.83;;;4.72;;
26219;SDS011;13955;55.574;37.474;2022-10-12T14:32:06;11.57;;;5.03;;
26219;SDS011;13955;55.574;37.474;2022-10-12T14:34:46;9.43;;;4.80;;
26219;SDS011;13955;55.574;37.474;2022-10-12T14:37:19;8.18;;;4.97;;
26219;SDS011;13955;55.574;37.474;2022-10-12T14:39:51;12.25;;;6.00;;
26219;SDS011;13955;55.574;37.474;2022-10-12T14:42:38;11.08;;;5.20;;
26219;SDS011;13955;55.574;37.474;2022-10-12T14:47:38;11.12;;;5.85;;
26219;SDS011;13955;55.574;37.474;2022-10-12T14:50:10;13.35;;;5.60;;
26219;SDS011;13955;55.574;37.474;2022-10-12T14:52:44;14.28;;;7.05;;
26219;SDS011;13955;55.574;37.474;2022-10-12T14:55:22;14.60;;;6.60;;
26219;SDS011;13955;55.574;37.474;2022-10-12T14:57:55;14.20;;;6.95;;
26219;SDS011;13955;55.574;37.474;2022-10-12T15:00:29;17.67;;;6.90;;
26219;SDS011;13955;55.574;37.474;2022-10-12T15:03:01;15.85;;;7.20;;
26219;SDS011;13955;55.574;37.474;2022-10-12T15:05:32;12.03;;;7.10;;
26219;SDS011;13955;55.574;37.474;2022-10-12T15:08:02;10.90;;;7.17;;
26219;SDS011;13955;55.574;37.474;2022-10-12T15:10:35;14.03;;;7.75;;
26219;SDS011;13955;55.574;37.474;2022-10-12T15:13:05;16.10;;;7.87;;
26219;SDS011;13955;55.574;37.474;2022-10-12T15:15:41;18.40;;;7.80;;
26219;SDS011;13955;55.574;37.474;2022-10-12T15:18:13;16.23;;;8.23;;
26219;SDS011;13955;55.574;37.474;2022-10-12T15:20:43;15.25;;;8.60;;
26219;SDS011;13955;55.574;37.474;2022-10-12T15:23:16;21.87;;;9.23;;
26219;SDS011;13955;55.574;37.474;2022-10-12T15:25:50;21.25;;;8.78;;
26219;SDS011;13955;55.574;37.474;2022-10-12T15:28:22;19.40;;;8.65;;
26219;SDS011;13955;55.574;37.474;2022-10-12T15:30:58;16.75;;;8.03;;
26219;SDS011;13955;55.574;37.474;2022-10-12T15:33:32;24.37;;;9.45;;
26219;SDS011;13955;55.574;37.474;2022-10-12T15:36:02;13.68;;;5.47;;
26219;SDS011;13955;55.574;37.474;2022-10-12T15:38:32;21.73;;;8.55;;
26219;SDS011;13955;55.574;37.474;2022-10-12T15:41:03;16.82;;;7.15;;
26219;SDS011;13955;55.574;37.474;2022-10-12T15:46:03;16.55;;;7.62;;
26219;SDS011;13955;55.574;37.474;2022-10-12T15:48:33;19.52;;;8.50;;
26219;SDS011;13955;55.574;37.474;2022-10-12T15:51:05;22.42;;;9.30;;
26219;SDS011;13955;55.574;37.474;2022-10-12T15:53:37;22.10;;;9.80;;
26219;SDS011;13955;55.574;37.474;2022-10-12T15:56:10;16.30;;;8.90;;
26219;SDS011;13955;55.574;37.474;2022-10-12T15:58:40;23.40;;;9.65;;
26219;SDS011;13955;55.574;37.474;2022-10-12T16:01:12;15.18;;;7.53;;
26219;SDS011;13955;55.574;37.474;2022-10-12T16:03:44;24.35;;;9.58;;
26219;SDS011;13955;55.574;37.474;2022-10-12T16:06:19;21.90;;;9.78;;
26219;SDS011;13955;55.574;37.474;2022-10-12T16:08:49;26.17;;;12.20;;
26219;SDS011;13955;55.574;37.474;2022-10-12T16:11:20;26.07;;;10.95;;
26219;SDS011;13955;55.574;37.474;2022-10-12T16:13:50;25.37;;;13.50;;
26219;SDS011;13955;55.574;37.474;2022-10-12T16:16:20;22.25;;;11.48;;
26219;SDS011;13955;55.574;37.474;2022-10-12T16:18:51;28.87;;;10.03;;
26219;SDS011;13955;55.574;37.474;2022-10-12T16:21:21;21.05;;;10.35;;
26219;SDS011;13955;55.574;37.474;2022-10-12T16:23:51;18.20;;;9.30;;
26219;SDS011;13955;55.574;37.474;2022-10-12T16:26:21;24.73;;;9.83;;
26219;SDS011;13955;55.574;37.474;2022-10-12T16:28:51;19.60;;;9.50;;
26219;SDS011;13955;55.574;37.474;2022-10-12T16:31:22;22.05;;;9.28;;
26219;SDS011;13955;55.574;37.474;2022-10-12T16:33:52;15.88;;;7.53;;
26219;SDS011;13955;55.574;37.474;2022-10-12T16:36:22;13.00;;;6.80;;
26219;SDS011;13955;55.574;37.474;2022-10-12T16:38:52;20.57;;;8.73;;
26219;SDS011;13955;55.574;37.474;2022-10-12T16:41:23;19.10;;;9.20;;
26219;SDS011;13955;55.574;37.474;2022-10-12T16:43:53;21.57;;;9.85;;
26219;SDS011;13955;55.574;37.474;2022-10-12T16:46:24;15.40;;;8.30;;
26219;SDS011;13955;55.574;37.474;2022-10-12T16:48:54;14.65;;;7.33;;
26219;SDS011;13955;55.574;37.474;2022-10-12T16:51:24;16.02;;;8.15;;
26219;SDS011;13955;55.574;37.474;2022-10-12T16:53:55;28.98;;;9.83;;
26219;SDS011;13955;55.574;37.474;2022-10-12T16:56:25;20.00;;;9.28;;
26219;SDS011;13955;55.574;37.474;2022-10-12T16:58:56;17.40;;;8.95;;
26219;SDS011;13955;55.574;37.474;2022-10-12T17:01:27;20.10;;;8.40;;
26219;SDS011;13955;55.574;37.474;2022-10-12T17:03:57;28.30;;;10.43;;